Siam — SGIP — position and weather

sailwx.info

Track history (hours):
 
Tides and Currents Weather Stations Pressure Air Temp Water Temp Dewpoint Dewpoint Depression Visibility Wind Speed Wind Dir Waves Ship Positions

Siam

Last reported at 2014-Jul-24 01:31 UTC. Time now 2014-Jul-24 02:24 UTC.
Position N 55°60' E 012°45'.

Length 22 m.

Type: Passenger vessel. MMSI: 265572320.

Date/timePositionNaut miles runAvg speedWind from/ knotsBaromVisibWave heightAir tempDewpointWater temp
2014-Jul-24 01:31N 55°60' E 012°45'0 0.0
2014-Jul-24 00:31N 55°60' E 012°45'0 0.0
2014-Jul-23 23:28N 55°60' E 012°45'0 0.0
2014-Jul-23 22:31N 55°60' E 012°45'0 0.0
2014-Jul-23 21:31N 55°60' E 012°45'0 0.0
2014-Jul-23 20:33N 55°60' E 012°45'0 0.0
2014-Jul-23 19:31N 55°60' E 012°45'0 0.0
2014-Jul-23 18:31N 55°60' E 012°45'0 0.0
2014-Jul-23 17:31N 55°60' E 012°45'0 0.0
2014-Jul-23 16:28N 55°60' E 012°45'0 0.0
2014-Jul-23 15:31N 55°60' E 012°45'1 1.3
2014-Jul-23 14:33N 55°58' E 012°44'2 2.3
2014-Jul-23 13:33N 55°56' E 012°44'3 3.4
2014-Jul-23 12:32N 55°60' E 012°45'0 0.0
2014-Jul-23 11:32N 55°60' E 012°45'0 0.0
2014-Jul-23 10:32N 55°60' E 012°45'4 3.7
2014-Jul-23 09:31N 55°56' E 012°42'1 0.5
2014-Jul-23 08:33N 55°57' E 012°41'1 0.7
2014-Jul-23 07:33N 55°57' E 012°41'2 2.3
2014-Jul-23 06:33N 55°60' E 012°42'2 1.7
2014-Jul-23 05:33N 55°60' E 012°45'0 0.0
2014-Jul-23 04:33N 55°60' E 012°45'0 0.0
2014-Jul-23 03:33N 55°60' E 012°45'0 0.0
2014-Jul-23 02:33N 55°60' E 012°45'0 0.0
2014-Jul-23 01:33N 55°60' E 012°45'0 0.0
2014-Jul-23 00:33N 55°60' E 012°45'0 0.0
2014-Jul-22 23:33N 55°60' E 012°45'0 0.0
2014-Jul-22 22:33N 55°60' E 012°45'0 0.0
2014-Jul-22 21:33N 55°60' E 012°45'0 0.0
2014-Jul-22 20:30N 55°60' E 012°45'0 0.0
2014-Jul-22 19:33N 55°60' E 012°45'0 0.0
2014-Jul-22 18:33N 55°60' E 012°45'0 0.0
2014-Jul-22 17:30N 55°60' E 012°45'0 0.0
2014-Jul-22 16:33N 55°60' E 012°45'0 0.0
2014-Jul-22 15:33N 55°60' E 012°45'0 0.0
2014-Jul-22 14:33N 55°60' E 012°45'0 0.0
2014-Jul-22 13:27N 55°60' E 012°45'0 0.0
2014-Jul-22 12:33N 55°60' E 012°45'0 0.0
2014-Jul-22 11:30N 55°60' E 012°45'0 0.0
2014-Jul-22 10:33N 55°60' E 012°45'4 3.6
2014-Jul-22 09:31N 55°56' E 012°42'1 1.3
2014-Jul-22 08:32N 55°57' E 012°41'1 1.2
2014-Jul-22 07:33N 55°59' E 012°41'1 1.0
2014-Jul-22 06:33N 55°60' E 012°41'2 1.7
2014-Jul-22 05:33N 55°60' E 012°45'0 0.0
2014-Jul-22 04:33N 55°60' E 012°45'0 0.0
2014-Jul-22 03:33N 55°60' E 012°45'0 0.0
2014-Jul-22 02:33N 55°60' E 012°45'0 0.0
2014-Jul-22 01:33N 55°60' E 012°45'0 0.0
2014-Jul-22 00:33N 55°60' E 012°45'0 0.0
2014-Jul-21 23:33N 55°60' E 012°45'0 0.0
2014-Jul-21 22:33N 55°60' E 012°45'0 0.0
2014-Jul-21 21:33N 55°60' E 012°45'0 0.0
2014-Jul-21 20:33N 55°60' E 012°45'0 0.0
2014-Jul-21 20:15N 55°60' E 012°45'0 0.0
2014-Jul-21 19:33N 55°60' E 012°45'0 0.0
2014-Jul-21 18:33N 55°60' E 012°45'0 0.0
2014-Jul-21 17:30N 55°60' E 012°45'0 0.0
2014-Jul-21 16:33N 55°60' E 012°45'0 0.0
2014-Jul-21 15:30N 55°60' E 012°45'3 3.2
2014-Jul-21 14:33N 55°57' E 012°44'2 2.1
2014-Jul-21 13:33N 55°54' E 012°44'5 5.0
2014-Jul-21 12:31N 55°60' E 012°45'0 0.0
2014-Jul-21 11:31N 55°60' E 012°45'0 0.0
2014-Jul-21 10:28N 55°60' E 012°45'0 0.0
2014-Jul-21 09:31N 55°60' E 012°45'2 2.6
2014-Jul-21 08:33N 55°57' E 012°43'1 1.3
2014-Jul-21 07:32N 55°56' E 012°44'4 3.7
2014-Jul-21 06:32N 55°60' E 012°45'0 0.0
2014-Jul-21 05:29N 55°60' E 012°45'0 0.0
2014-Jul-21 04:32N 55°60' E 012°45'0 0.0
2014-Jul-21 03:32N 55°60' E 012°45'0 0.0
2014-Jul-21 02:32N 55°60' E 012°45'0 0.0
2014-Jul-21 01:32N 55°60' E 012°45'0 0.0
2014-Jul-21 00:26N 55°60' E 012°45'0 0.0
2014-Jul-20 23:32N 55°60' E 012°45'0 0.0
2014-Jul-20 22:32N 55°60' E 012°45'0 0.0
2014-Jul-20 21:32N 55°60' E 012°45'0 0.0
2014-Jul-20 20:32N 55°60' E 012°45'0 0.0
2014-Jul-20 19:32N 55°60' E 012°45'0 0.0
2014-Jul-20 18:32N 55°60' E 012°45'0 0.0
2014-Jul-20 17:33N 55°60' E 012°45'0 0.0
2014-Jul-20 16:33N 55°60' E 012°45'2 1.5
2014-Jul-20 15:33N 55°58' E 012°43'2 2.2
2014-Jul-20 14:33N 55°56' E 012°43'1 1.1
2014-Jul-20 13:33N 55°55' E 012°44'3 2.5
2014-Jul-20 12:33N 55°57' E 012°41'3 3.2
2014-Jul-20 11:33N 55°59' E 012°44'0 0.2
2014-Jul-20 10:33N 55°60' E 012°45'4 4.1
2014-Jul-20 09:33N 55°56' E 012°41'1 1.3
2014-Jul-20 08:33N 55°56' E 012°39'1 0.6
2014-Jul-20 07:33N 55°56' E 012°40'1 1.2
2014-Jul-20 06:33N 55°56' E 012°42'4 3.6
2014-Jul-20 05:33N 55°60' E 012°45'0 0.0
2014-Jul-20 04:30N 55°60' E 012°45'0 0.0
2014-Jul-20 03:33N 55°60' E 012°45'0 0.0
2014-Jul-20 02:33N 55°60' E 012°45'0 0.0
2014-Jul-20 01:30N 55°60' E 012°45'0 0.0
2014-Jul-20 00:33N 55°60' E 012°45'0 0.0
2014-Jul-19 23:33N 55°60' E 012°45'0 0.0
2014-Jul-19 22:33N 55°60' E 012°45'0 0.0
2014-Jul-19 21:33N 55°60' E 012°45'0 0.0
2014-Jul-19 20:33N 55°60' E 012°45'0 0.0
2014-Jul-19 19:27N 55°60' E 012°45'0 0.0
2014-Jul-19 18:30N 55°60' E 012°45'0 0.0
2014-Jul-19 17:33N 55°60' E 012°45'0 0.0
2014-Jul-19 16:33N 55°60' E 012°45'0 0.0
2014-Jul-19 15:33N 55°60' E 012°45'3 2.9
2014-Jul-19 14:34N 55°57' E 012°44'0 0.5
2014-Jul-19 13:33N 55°57' E 012°44'3 2.9
2014-Jul-19 12:33N 55°54' E 012°44'5 5.3
2014-Jul-19 11:32N 55°60' E 012°45'3 2.9
2014-Jul-19 10:33N 55°57' E 012°43'1 1.2
2014-Jul-19 09:33N 55°58' E 012°44'1 1.1
2014-Jul-19 08:33N 55°59' E 012°44'2 2.4
2014-Jul-19 07:33N 55°57' E 012°44'3 3.0
2014-Jul-19 06:33N 55°60' E 012°45'0 0.0
2014-Jul-19 05:30N 55°60' E 012°45'0 0.0
2014-Jul-19 04:33N 55°60' E 012°45'0 0.0
2014-Jul-19 03:33N 55°60' E 012°45'0 0.0
2014-Jul-19 02:33N 55°60' E 012°45'0 0.0
2014-Jul-19 01:33N 55°60' E 012°45'0 0.0
2014-Jul-19 00:30N 55°60' E 012°45'0 0.0
2014-Jul-18 23:33N 55°60' E 012°45'0 0.0
2014-Jul-18 22:33N 55°60' E 012°45'0 0.0
2014-Jul-18 21:30N 55°60' E 012°45'0 0.0
2014-Jul-18 20:33N 55°60' E 012°45'0 0.0
2014-Jul-18 19:33N 55°60' E 012°45'0 0.0
2014-Jul-18 18:33N 55°60' E 012°45'0 0.0
2014-Jul-18 17:33N 55°60' E 012°45'0 0.0
2014-Jul-18 16:30N 55°60' E 012°45'0 0.0
2014-Jul-18 15:33N 55°60' E 012°45'2 2.4
2014-Jul-18 14:33N 55°57' E 012°44'0 0.3
2014-Jul-18 13:32N 55°57' E 012°44'2 2.1
2014-Jul-18 12:32N 55°60' E 012°45'0 0.0
2014-Jul-18 11:29N 55°60' E 012°45'0 0.0
2014-Jul-18 10:32N 55°60' E 012°45'3 3.1
2014-Jul-18 09:30N 55°57' E 012°41'0 0.5
2014-Jul-18 08:33N 55°57' E 012°41'2 2.3
2014-Jul-18 07:33N 55°60' E 012°42'0 0.1
2014-Jul-18 06:33N 55°60' E 012°42'2 1.6
2014-Jul-18 05:31N 55°60' E 012°45'0 0.0
2014-Jul-18 04:31N 55°60' E 012°45'0 0.0
2014-Jul-18 03:31N 55°60' E 012°45'0 0.0
2014-Jul-18 02:31N 55°60' E 012°45'0 0.0
2014-Jul-18 01:25N 55°60' E 012°45'0 0.0
2014-Jul-18 00:31N 55°60' E 012°45'0 0.0
2014-Jul-17 23:31N 55°60' E 012°45'0 0.0
2014-Jul-17 22:31N 55°60' E 012°45'0 0.0
2014-Jul-17 21:31N 55°60' E 012°45'0 0.0
2014-Jul-17 20:31N 55°60' E 012°45'0 0.0
2014-Jul-17 19:31N 55°60' E 012°45'0 0.0
2014-Jul-17 18:31N 55°60' E 012°45'0 0.0
2014-Jul-17 17:28N 55°60' E 012°45'0 0.0
2014-Jul-17 16:31N 55°60' E 012°45'0 0.0
2014-Jul-17 15:31N 55°60' E 012°45'2 1.8
2014-Jul-17 14:33N 55°58' E 012°44'0 0.2
2014-Jul-17 13:33N 55°58' E 012°44'2 1.8
2014-Jul-17 12:28N 55°60' E 012°45'0 0.0
2014-Jul-17 11:31N 55°60' E 012°45'0 0.0
2014-Jul-17 10:31N 55°60' E 012°45'3 3.5
2014-Jul-17 09:34N 55°57' E 012°41'1 0.9
2014-Jul-17 08:28N 55°58' E 012°41'2 1.8
2014-Jul-17 07:33N 55°59' E 012°41'0 0.4
2014-Jul-17 06:32N 55°60' E 012°42'2 1.7
2014-Jul-17 05:31N 55°60' E 012°45'0 0.0
2014-Jul-17 04:31N 55°60' E 012°45'0 0.0
2014-Jul-17 03:31N 55°60' E 012°45'0 0.0
2014-Jul-17 02:31N 55°60' E 012°45'0 0.0
2014-Jul-17 01:31N 55°60' E 012°45'0 0.0
2014-Jul-17 00:31N 55°60' E 012°45'0 0.0
2014-Jul-16 23:31N 55°60' E 012°45'0 0.0
2014-Jul-16 22:31N 55°60' E 012°45'0 0.0
2014-Jul-16 21:31N 55°60' E 012°45'0 0.0
2014-Jul-16 20:31N 55°60' E 012°45'0 0.0
2014-Jul-16 19:31N 55°60' E 012°45'0 0.0
2014-Jul-16 18:31N 55°60' E 012°45'0 0.0
2014-Jul-16 17:28N 55°60' E 012°45'0 0.0
2014-Jul-16 16:31N 55°60' E 012°45'0 0.0
2014-Jul-16 15:31N 55°60' E 012°45'0 0.0
2014-Jul-16 14:31N 55°60' E 012°45'0 0.0
2014-Jul-16 13:31N 55°60' E 012°45'0 0.0
2014-Jul-16 12:28N 55°60' E 012°45'0 0.0
2014-Jul-16 11:22N 55°60' E 012°45'0 0.0
2014-Jul-16 10:31N 55°60' E 012°45'3 2.8
2014-Jul-16 09:32N 55°57' E 012°42'0 0.1
2014-Jul-16 08:32N 55°58' E 012°41'2 2.1
2014-Jul-16 07:32N 55°60' E 012°42'0 0.3
2014-Jul-16 06:33N 55°59' E 012°42'1 1.4
2014-Jul-16 05:31N 55°60' E 012°45'0 0.0
2014-Jul-16 04:31N 55°60' E 012°45'0 0.0
2014-Jul-16 03:31N 55°60' E 012°45'0 0.0
2014-Jul-16 02:31N 55°60' E 012°45'0 0.0
2014-Jul-16 01:31N 55°60' E 012°45'0 0.0
2014-Jul-16 00:32N 55°60' E 012°45'0 0.0
2014-Jul-15 23:31N 55°60' E 012°45'0 0.0
2014-Jul-15 22:32N 55°60' E 012°45'0 0.0
2014-Jul-15 21:28N 55°60' E 012°45'0 0.0
2014-Jul-15 20:32N 55°60' E 012°45'0 0.0
2014-Jul-15 19:32N 55°60' E 012°45'0 0.0
2014-Jul-15 18:32N 55°60' E 012°45'0 0.0
2014-Jul-15 17:32N 55°60' E 012°45'0 0.0
2014-Jul-15 16:32N 55°60' E 012°45'0 0.0
2014-Jul-15 15:29N 55°60' E 012°45'3 3.3
2014-Jul-15 14:33N 55°57' E 012°44'1 1.4
2014-Jul-15 13:33N 55°55' E 012°44'5 4.4
2014-Jul-15 12:31N 55°60' E 012°45'0 0.0
2014-Jul-15 11:31N 55°60' E 012°45'0 0.0
2014-Jul-15 10:31N 55°60' E 012°45'0 0.0
2014-Jul-15 09:31N 55°60' E 012°45'0 0.0
2014-Jul-15 08:31N 55°60' E 012°45'0 0.0
2014-Jul-15 07:31N 55°60' E 012°45'0 0.0
2014-Jul-15 06:31N 55°60' E 012°45'0 0.0
2014-Jul-15 05:31N 55°60' E 012°45'0 0.0
2014-Jul-15 04:31N 55°60' E 012°45'0 0.0
2014-Jul-15 03:28N 55°60' E 012°45'0 0.0
2014-Jul-15 02:22N 55°60' E 012°45'0 0.0
2014-Jul-15 01:31N 55°60' E 012°45'0 0.0
2014-Jul-15 00:31N 55°60' E 012°45'0 0.0
2014-Jul-14 23:28N 55°60' E 012°45'0 0.0
2014-Jul-14 22:28N 55°60' E 012°45'0 0.0
2014-Jul-14 21:31N 55°60' E 012°45'0 0.0
2014-Jul-14 20:31N 55°60' E 012°45'0 0.0
2014-Jul-14 19:25N 55°60' E 012°45'0 0.0
2014-Jul-14 18:31N 55°60' E 012°45'0 0.0
2014-Jul-14 17:31N 55°60' E 012°45'0 0.0
2014-Jul-14 16:31N 55°60' E 012°45'0 0.0
2014-Jul-14 15:31N 55°60' E 012°45'0 0.0
2014-Jul-14 14:31N 55°60' E 012°45'0 0.0
2014-Jul-14 13:31N 55°60' E 012°45'0 0.0
2014-Jul-14 12:31N 55°60' E 012°45'0 0.0
2014-Jul-14 11:31N 55°60' E 012°45'0 0.0
2014-Jul-14 10:31N 55°60' E 012°45'5 4.5
2014-Jul-14 09:29N 55°56' E 012°39'0 0.2
2014-Jul-14 08:33N 55°56' E 012°40'1 1.1
2014-Jul-14 07:33N 55°57' E 012°41'0 0.2
2014-Jul-14 06:33N 55°57' E 012°41'4 3.2
2014-Jul-14 05:27N 55°60' E 012°45'0 0.0
2014-Jul-14 04:33N 55°60' E 012°45'0 0.0
2014-Jul-14 03:33N 55°60' E 012°45'0 0.0
2014-Jul-14 02:30N 55°60' E 012°45'  
Track history (hours):
 
Tides and Currents Weather Stations Pressure Air Temp Water Temp Dewpoint Dewpoint Depression Visibility Wind Speed Wind Dir Waves Ship Positions

Siam

Last reported at 2014-Jul-24 01:31 UTC. Time now 2014-Jul-24 02:24 UTC.
Position N 55°60' E 012°45'.

Length 22 m.

Type: Passenger vessel. MMSI: 265572320.

Date/timePositionNaut miles runAvg speedWind from/ knotsBaromVisibWave heightAir tempDewpointWater temp
2014-Jul-24 01:31N 55°60' E 012°45'0 0.0
2014-Jul-24 00:31N 55°60' E 012°45'0 0.0
2014-Jul-23 23:28N 55°60' E 012°45'0 0.0
2014-Jul-23 22:31N 55°60' E 012°45'0 0.0
2014-Jul-23 21:31N 55°60' E 012°45'0 0.0
2014-Jul-23 20:33N 55°60' E 012°45'0 0.0
2014-Jul-23 19:31N 55°60' E 012°45'0 0.0
2014-Jul-23 18:31N 55°60' E 012°45'0 0.0
2014-Jul-23 17:31N 55°60' E 012°45'0 0.0
2014-Jul-23 16:28N 55°60' E 012°45'0 0.0
2014-Jul-23 15:31N 55°60' E 012°45'1 1.3
2014-Jul-23 14:33N 55°58' E 012°44'2 2.3
2014-Jul-23 13:33N 55°56' E 012°44'3 3.4
2014-Jul-23 12:32N 55°60' E 012°45'0 0.0
2014-Jul-23 11:32N 55°60' E 012°45'0 0.0
2014-Jul-23 10:32N 55°60' E 012°45'4 3.7
2014-Jul-23 09:31N 55°56' E 012°42'1 0.5
2014-Jul-23 08:33N 55°57' E 012°41'1 0.7
2014-Jul-23 07:33N 55°57' E 012°41'2 2.3
2014-Jul-23 06:33N 55°60' E 012°42'2 1.7
2014-Jul-23 05:33N 55°60' E 012°45'0 0.0
2014-Jul-23 04:33N 55°60' E 012°45'0 0.0
2014-Jul-23 03:33N 55°60' E 012°45'0 0.0
2014-Jul-23 02:33N 55°60' E 012°45'0 0.0
2014-Jul-23 01:33N 55°60' E 012°45'0 0.0
2014-Jul-23 00:33N 55°60' E 012°45'0 0.0
2014-Jul-22 23:33N 55°60' E 012°45'0 0.0
2014-Jul-22 22:33N 55°60' E 012°45'0 0.0
2014-Jul-22 21:33N 55°60' E 012°45'0 0.0
2014-Jul-22 20:30N 55°60' E 012°45'0 0.0
2014-Jul-22 19:33N 55°60' E 012°45'0 0.0
2014-Jul-22 18:33N 55°60' E 012°45'0 0.0
2014-Jul-22 17:30N 55°60' E 012°45'0 0.0
2014-Jul-22 16:33N 55°60' E 012°45'0 0.0
2014-Jul-22 15:33N 55°60' E 012°45'0 0.0
2014-Jul-22 14:33N 55°60' E 012°45'0 0.0
2014-Jul-22 13:27N 55°60' E 012°45'0 0.0
2014-Jul-22 12:33N 55°60' E 012°45'0 0.0
2014-Jul-22 11:30N 55°60' E 012°45'0 0.0
2014-Jul-22 10:33N 55°60' E 012°45'4 3.6
2014-Jul-22 09:31N 55°56' E 012°42'1 1.3
2014-Jul-22 08:32N 55°57' E 012°41'1 1.2
2014-Jul-22 07:33N 55°59' E 012°41'1 1.0
2014-Jul-22 06:33N 55°60' E 012°41'2 1.7
2014-Jul-22 05:33N 55°60' E 012°45'0 0.0
2014-Jul-22 04:33N 55°60' E 012°45'0 0.0
2014-Jul-22 03:33N 55°60' E 012°45'0 0.0
2014-Jul-22 02:33N 55°60' E 012°45'0 0.0
2014-Jul-22 01:33N 55°60' E 012°45'0 0.0
2014-Jul-22 00:33N 55°60' E 012°45'0 0.0
2014-Jul-21 23:33N 55°60' E 012°45'0 0.0
2014-Jul-21 22:33N 55°60' E 012°45'0 0.0
2014-Jul-21 21:33N 55°60' E 012°45'0 0.0
2014-Jul-21 20:33N 55°60' E 012°45'0 0.0
2014-Jul-21 20:15N 55°60' E 012°45'0 0.0
2014-Jul-21 19:33N 55°60' E 012°45'0 0.0
2014-Jul-21 18:33N 55°60' E 012°45'0 0.0
2014-Jul-21 17:30N 55°60' E 012°45'0 0.0
2014-Jul-21 16:33N 55°60' E 012°45'0 0.0
2014-Jul-21 15:30N 55°60' E 012°45'3 3.2
2014-Jul-21 14:33N 55°57' E 012°44'2 2.1
2014-Jul-21 13:33N 55°54' E 012°44'5 5.0
2014-Jul-21 12:31N 55°60' E 012°45'0 0.0
2014-Jul-21 11:31N 55°60' E 012°45'0 0.0
2014-Jul-21 10:28N 55°60' E 012°45'0 0.0
2014-Jul-21 09:31N 55°60' E 012°45'2 2.6
2014-Jul-21 08:33N 55°57' E 012°43'1 1.3
2014-Jul-21 07:32N 55°56' E 012°44'4 3.7
2014-Jul-21 06:32N 55°60' E 012°45'0 0.0
2014-Jul-21 05:29N 55°60' E 012°45'0 0.0
2014-Jul-21 04:32N 55°60' E 012°45'0 0.0
2014-Jul-21 03:32N 55°60' E 012°45'0 0.0
2014-Jul-21 02:32N 55°60' E 012°45'0 0.0
2014-Jul-21 01:32N 55°60' E 012°45'0 0.0
2014-Jul-21 00:26N 55°60' E 012°45'0 0.0
2014-Jul-20 23:32N 55°60' E 012°45'0 0.0
2014-Jul-20 22:32N 55°60' E 012°45'0 0.0
2014-Jul-20 21:32N 55°60' E 012°45'0 0.0
2014-Jul-20 20:32N 55°60' E 012°45'0 0.0
2014-Jul-20 19:32N 55°60' E 012°45'0 0.0
2014-Jul-20 18:32N 55°60' E 012°45'0 0.0
2014-Jul-20 17:33N 55°60' E 012°45'0 0.0
2014-Jul-20 16:33N 55°60' E 012°45'2 1.5
2014-Jul-20 15:33N 55°58' E 012°43'2 2.2
2014-Jul-20 14:33N 55°56' E 012°43'1 1.1
2014-Jul-20 13:33N 55°55' E 012°44'3 2.5
2014-Jul-20 12:33N 55°57' E 012°41'3 3.2
2014-Jul-20 11:33N 55°59' E 012°44'0 0.2
2014-Jul-20 10:33N 55°60' E 012°45'4 4.1
2014-Jul-20 09:33N 55°56' E 012°41'1 1.3
2014-Jul-20 08:33N 55°56' E 012°39'1 0.6
2014-Jul-20 07:33N 55°56' E 012°40'1 1.2
2014-Jul-20 06:33N 55°56' E 012°42'4 3.6
2014-Jul-20 05:33N 55°60' E 012°45'0 0.0
2014-Jul-20 04:30N 55°60' E 012°45'0 0.0
2014-Jul-20 03:33N 55°60' E 012°45'0 0.0
2014-Jul-20 02:33N 55°60' E 012°45'0 0.0
2014-Jul-20 01:30N 55°60' E 012°45'0 0.0
2014-Jul-20 00:33N 55°60' E 012°45'0 0.0
2014-Jul-19 23:33N 55°60' E 012°45'0 0.0
2014-Jul-19 22:33N 55°60' E 012°45'0 0.0
2014-Jul-19 21:33N 55°60' E 012°45'0 0.0
2014-Jul-19 20:33N 55°60' E 012°45'0 0.0
2014-Jul-19 19:27N 55°60' E 012°45'0 0.0
2014-Jul-19 18:30N 55°60' E 012°45'0 0.0
2014-Jul-19 17:33N 55°60' E 012°45'0 0.0
2014-Jul-19 16:33N 55°60' E 012°45'0 0.0
2014-Jul-19 15:33N 55°60' E 012°45'3 2.9
2014-Jul-19 14:34N 55°57' E 012°44'0 0.5
2014-Jul-19 13:33N 55°57' E 012°44'3 2.9
2014-Jul-19 12:33N 55°54' E 012°44'5 5.3
2014-Jul-19 11:32N 55°60' E 012°45'3 2.9
2014-Jul-19 10:33N 55°57' E 012°43'1 1.2
2014-Jul-19 09:33N 55°58' E 012°44'1 1.1
2014-Jul-19 08:33N 55°59' E 012°44'2 2.4
2014-Jul-19 07:33N 55°57' E 012°44'3 3.0
2014-Jul-19 06:33N 55°60' E 012°45'0 0.0
2014-Jul-19 05:30N 55°60' E 012°45'0 0.0
2014-Jul-19 04:33N 55°60' E 012°45'0 0.0
2014-Jul-19 03:33N 55°60' E 012°45'0 0.0
2014-Jul-19 02:33N 55°60' E 012°45'0 0.0
2014-Jul-19 01:33N 55°60' E 012°45'0 0.0
2014-Jul-19 00:30N 55°60' E 012°45'0 0.0
2014-Jul-18 23:33N 55°60' E 012°45'0 0.0
2014-Jul-18 22:33N 55°60' E 012°45'0 0.0
2014-Jul-18 21:30N 55°60' E 012°45'0 0.0
2014-Jul-18 20:33N 55°60' E 012°45'0 0.0
2014-Jul-18 19:33N 55°60' E 012°45'0 0.0
2014-Jul-18 18:33N 55°60' E 012°45'0 0.0
2014-Jul-18 17:33N 55°60' E 012°45'0 0.0
2014-Jul-18 16:30N 55°60' E 012°45'0 0.0
2014-Jul-18 15:33N 55°60' E 012°45'2 2.4
2014-Jul-18 14:33N 55°57' E 012°44'0 0.3
2014-Jul-18 13:32N 55°57' E 012°44'2 2.1
2014-Jul-18 12:32N 55°60' E 012°45'0 0.0
2014-Jul-18 11:29N 55°60' E 012°45'0 0.0
2014-Jul-18 10:32N 55°60' E 012°45'3 3.1
2014-Jul-18 09:30N 55°57' E 012°41'0 0.5
2014-Jul-18 08:33N 55°57' E 012°41'2 2.3
2014-Jul-18 07:33N 55°60' E 012°42'0 0.1
2014-Jul-18 06:33N 55°60' E 012°42'2 1.6
2014-Jul-18 05:31N 55°60' E 012°45'0 0.0
2014-Jul-18 04:31N 55°60' E 012°45'0 0.0
2014-Jul-18 03:31N 55°60' E 012°45'0 0.0
2014-Jul-18 02:31N 55°60' E 012°45'0 0.0
2014-Jul-18 01:25N 55°60' E 012°45'0 0.0
2014-Jul-18 00:31N 55°60' E 012°45'0 0.0
2014-Jul-17 23:31N 55°60' E 012°45'0 0.0
2014-Jul-17 22:31N 55°60' E 012°45'0 0.0
2014-Jul-17 21:31N 55°60' E 012°45'0 0.0
2014-Jul-17 20:31N 55°60' E 012°45'0 0.0
2014-Jul-17 19:31N 55°60' E 012°45'0 0.0
2014-Jul-17 18:31N 55°60' E 012°45'0 0.0
2014-Jul-17 17:28N 55°60' E 012°45'0 0.0
2014-Jul-17 16:31N 55°60' E 012°45'0 0.0
2014-Jul-17 15:31N 55°60' E 012°45'2 1.8
2014-Jul-17 14:33N 55°58' E 012°44'0 0.2
2014-Jul-17 13:33N 55°58' E 012°44'2 1.8
2014-Jul-17 12:28N 55°60' E 012°45'0 0.0
2014-Jul-17 11:31N 55°60' E 012°45'0 0.0
2014-Jul-17 10:31N 55°60' E 012°45'3 3.5
2014-Jul-17 09:34N 55°57' E 012°41'1 0.9
2014-Jul-17 08:28N 55°58' E 012°41'2 1.8
2014-Jul-17 07:33N 55°59' E 012°41'0 0.4
2014-Jul-17 06:32N 55°60' E 012°42'2 1.7
2014-Jul-17 05:31N 55°60' E 012°45'0 0.0
2014-Jul-17 04:31N 55°60' E 012°45'0 0.0
2014-Jul-17 03:31N 55°60' E 012°45'0 0.0
2014-Jul-17 02:31N 55°60' E 012°45'0 0.0
2014-Jul-17 01:31N 55°60' E 012°45'0 0.0
2014-Jul-17 00:31N 55°60' E 012°45'0 0.0
2014-Jul-16 23:31N 55°60' E 012°45'0 0.0
2014-Jul-16 22:31N 55°60' E 012°45'0 0.0
2014-Jul-16 21:31N 55°60' E 012°45'0 0.0
2014-Jul-16 20:31N 55°60' E 012°45'0 0.0
2014-Jul-16 19:31N 55°60' E 012°45'0 0.0
2014-Jul-16 18:31N 55°60' E 012°45'0 0.0
2014-Jul-16 17:28N 55°60' E 012°45'0 0.0
2014-Jul-16 16:31N 55°60' E 012°45'0 0.0
2014-Jul-16 15:31N 55°60' E 012°45'0 0.0
2014-Jul-16 14:31N 55°60' E 012°45'0 0.0
2014-Jul-16 13:31N 55°60' E 012°45'0 0.0
2014-Jul-16 12:28N 55°60' E 012°45'0 0.0
2014-Jul-16 11:22N 55°60' E 012°45'0 0.0
2014-Jul-16 10:31N 55°60' E 012°45'3 2.8
2014-Jul-16 09:32N 55°57' E 012°42'0 0.1
2014-Jul-16 08:32N 55°58' E 012°41'2 2.1
2014-Jul-16 07:32N 55°60' E 012°42'0 0.3
2014-Jul-16 06:33N 55°59' E 012°42'1 1.4
2014-Jul-16 05:31N 55°60' E 012°45'0 0.0
2014-Jul-16 04:31N 55°60' E 012°45'0 0.0
2014-Jul-16 03:31N 55°60' E 012°45'0 0.0
2014-Jul-16 02:31N 55°60' E 012°45'0 0.0
2014-Jul-16 01:31N 55°60' E 012°45'0 0.0
2014-Jul-16 00:32N 55°60' E 012°45'0 0.0
2014-Jul-15 23:31N 55°60' E 012°45'0 0.0
2014-Jul-15 22:32N 55°60' E 012°45'0 0.0
2014-Jul-15 21:28N 55°60' E 012°45'0 0.0
2014-Jul-15 20:32N 55°60' E 012°45'0 0.0
2014-Jul-15 19:32N 55°60' E 012°45'0 0.0
2014-Jul-15 18:32N 55°60' E 012°45'0 0.0
2014-Jul-15 17:32N 55°60' E 012°45'0 0.0
2014-Jul-15 16:32N 55°60' E 012°45'0 0.0
2014-Jul-15 15:29N 55°60' E 012°45'3 3.3
2014-Jul-15 14:33N 55°57' E 012°44'1 1.4
2014-Jul-15 13:33N 55°55' E 012°44'5 4.4
2014-Jul-15 12:31N 55°60' E 012°45'0 0.0
2014-Jul-15 11:31N 55°60' E 012°45'0 0.0
2014-Jul-15 10:31N 55°60' E 012°45'0 0.0
2014-Jul-15 09:31N 55°60' E 012°45'0 0.0
2014-Jul-15 08:31N 55°60' E 012°45'0 0.0
2014-Jul-15 07:31N 55°60' E 012°45'0 0.0
2014-Jul-15 06:31N 55°60' E 012°45'0 0.0
2014-Jul-15 05:31N 55°60' E 012°45'0 0.0
2014-Jul-15 04:31N 55°60' E 012°45'0 0.0
2014-Jul-15 03:28N 55°60' E 012°45'0 0.0
2014-Jul-15 02:22N 55°60' E 012°45'0 0.0
2014-Jul-15 01:31N 55°60' E 012°45'0 0.0
2014-Jul-15 00:31N 55°60' E 012°45'0 0.0
2014-Jul-14 23:28N 55°60' E 012°45'0 0.0
2014-Jul-14 22:28N 55°60' E 012°45'0 0.0
2014-Jul-14 21:31N 55°60' E 012°45'0 0.0
2014-Jul-14 20:31N 55°60' E 012°45'0 0.0
2014-Jul-14 19:25N 55°60' E 012°45'0 0.0
2014-Jul-14 18:31N 55°60' E 012°45'0 0.0
2014-Jul-14 17:31N 55°60' E 012°45'0 0.0
2014-Jul-14 16:31N 55°60' E 012°45'0 0.0
2014-Jul-14 15:31N 55°60' E 012°45'0 0.0
2014-Jul-14 14:31N 55°60' E 012°45'0 0.0
2014-Jul-14 13:31N 55°60' E 012°45'0 0.0
2014-Jul-14 12:31N 55°60' E 012°45'0 0.0
2014-Jul-14 11:31N 55°60' E 012°45'0 0.0
2014-Jul-14 10:31N 55°60' E 012°45'5 4.5
2014-Jul-14 09:29N 55°56' E 012°39'0 0.2
2014-Jul-14 08:33N 55°56' E 012°40'1 1.1
2014-Jul-14 07:33N 55°57' E 012°41'0 0.2
2014-Jul-14 06:33N 55°57' E 012°41'4 3.2
2014-Jul-14 05:27N 55°60' E 012°45'0 0.0
2014-Jul-14 04:33N 55°60' E 012°45'0 0.0
2014-Jul-14 03:33N 55°60' E 012°45'0 0.0
2014-Jul-14 02:30N 55°60' E 012°45'  

Dump ship's entire track history